createdAt,value
2019-04-07T00:01:18.524Z,17.00
2019-04-07T00:03:49.569Z,14.53
2019-04-07T00:06:21.415Z,13.83
2019-04-07T00:08:54.512Z,14.87
2019-04-07T00:11:25.596Z,14.80
2019-04-07T00:13:58.922Z,14.63
2019-04-07T00:16:30.936Z,13.73
2019-04-07T00:19:03.566Z,13.67
2019-04-07T00:21:34.324Z,15.40
2019-04-07T00:24:05.813Z,16.23
2019-04-07T00:26:36.945Z,13.97
2019-04-07T00:29:08.713Z,13.90
2019-04-07T00:31:41.553Z,13.73
2019-04-07T00:34:12.539Z,12.27
2019-04-07T00:36:43.580Z,13.87
2019-04-07T00:39:14.846Z,16.03
2019-04-07T00:41:47.491Z,17.20
2019-04-07T00:44:19.023Z,14.13
2019-04-07T00:46:51.003Z,15.60
2019-04-07T00:49:22.080Z,15.20
2019-04-07T00:51:53.982Z,14.50
2019-04-07T00:54:25.395Z,13.80
2019-04-07T00:56:56.573Z,14.33
2019-04-07T00:59:27.517Z,15.43
2019-04-07T01:01:58.222Z,13.63
2019-04-07T01:04:29.421Z,15.87
2019-04-07T01:07:00.289Z,16.17
2019-04-07T01:09:32.638Z,16.23
2019-04-07T01:12:04.251Z,16.63
2019-04-07T01:14:35.180Z,16.90
2019-04-07T01:17:06.168Z,16.33
2019-04-07T01:19:39.821Z,16.57
2019-04-07T01:22:13.236Z,18.17
2019-04-07T01:24:44.234Z,17.80
2019-04-07T01:27:15.732Z,17.90
2019-04-07T01:29:49.583Z,18.00
2019-04-07T01:32:20.341Z,18.80
2019-04-07T01:34:51.530Z,18.50
2019-04-07T01:37:22.241Z,17.97
2019-04-07T01:39:53.740Z,20.40
2019-04-07T01:42:32.251Z,20.67
2019-04-07T01:45:21.495Z,17.00
2019-04-07T01:47:54.122Z,20.63
2019-04-07T01:50:27.591Z,19.67
2019-04-07T01:53:05.898Z,18.80
2019-04-07T01:56:01.820Z,19.83
2019-04-07T01:58:43.553Z,18.03
2019-04-07T02:01:18.651Z,19.27
2019-04-07T02:03:57.285Z,19.97
2019-04-07T02:06:45.352Z,20.00
2019-04-07T02:09:18.352Z,16.67
2019-04-07T02:11:53.981Z,16.57
2019-04-07T02:14:53.337Z,19.87
2019-04-07T02:17:32.659Z,20.10
2019-04-07T02:20:20.955Z,19.80
2019-04-07T02:22:55.083Z,19.70
2019-04-07T02:25:39.643Z,20.17
2019-04-07T02:28:20.859Z,20.57
2019-04-07T02:30:59.234Z,20.80
2019-04-07T02:33:43.861Z,20.20
2019-04-07T02:36:25.544Z,20.93
2019-04-07T02:39:07.144Z,19.83
2019-04-07T02:41:46.509Z,20.77
2019-04-07T02:44:22.092Z,21.60
2019-04-07T02:47:03.904Z,22.07
2019-04-07T02:49:36.600Z,20.33
2019-04-07T02:52:09.177Z,21.70
2019-04-07T02:54:43.299Z,20.47
2019-04-07T02:57:19.544Z,21.17
2019-04-07T03:00:01.356Z,21.47
2019-04-07T03:02:47.695Z,21.63
2019-04-07T03:05:33.285Z,21.27
2019-04-07T03:08:06.151Z,22.13
2019-04-07T03:10:38.766Z,22.37
2019-04-07T03:13:11.285Z,22.07
2019-04-07T03:15:46.339Z,23.73
2019-04-07T03:18:34.428Z,21.50
2019-04-07T03:21:11.522Z,22.73
2019-04-07T03:23:44.155Z,22.50
2019-04-07T03:26:32.370Z,18.87
2019-04-07T03:29:08.541Z,18.53
2019-04-07T03:31:43.151Z,19.87
2019-04-07T03:34:26.248Z,20.57
2019-04-07T03:37:18.351Z,20.77
2019-04-07T03:39:38.392Z,21.43
2019-04-07T03:42:10.934Z,21.37
2019-04-07T03:44:43.545Z,23.57
2019-04-07T03:47:18.502Z,23.77
2019-04-07T03:50:00.407Z,21.17
2019-04-07T03:52:35.974Z,23.83
2019-04-07T03:55:13.062Z,24.17
2019-04-07T03:57:57.962Z,25.33
2019-04-07T04:01:08.221Z,24.20
2019-04-07T04:03:57.152Z,24.43
2019-04-07T04:06:32.636Z,24.03
2019-04-07T04:09:11.375Z,23.97
2019-04-07T04:12:01.299Z,25.50
2019-04-07T04:14:53.399Z,21.03
2019-04-07T04:17:25.012Z,20.67
2019-04-07T04:19:55.977Z,20.77
2019-04-07T04:22:28.979Z,20.97
2019-04-07T04:25:00.955Z,19.50
2019-04-07T04:27:33.302Z,19.63
2019-04-07T04:30:06.972Z,19.30
2019-04-07T04:32:37.693Z,21.43
2019-04-07T04:35:10.814Z,20.60
2019-04-07T04:37:48.156Z,20.93
2019-04-07T04:40:14.576Z,19.90
2019-04-07T04:42:45.260Z,20.87
2019-04-07T04:45:15.998Z,20.77
2019-04-07T04:47:46.976Z,20.33
2019-04-07T04:50:18.267Z,20.67
2019-04-07T04:52:49.279Z,20.47
2019-04-07T04:55:20.440Z,20.07
2019-04-07T04:57:51.290Z,20.33
2019-04-07T05:00:22.911Z,21.80
2019-04-07T05:02:53.627Z,22.03
2019-04-07T05:05:24.494Z,20.07
2019-04-07T05:08:00.646Z,21.97
2019-04-07T05:10:27.911Z,21.37
2019-04-07T05:12:58.934Z,20.80
2019-04-07T05:15:29.789Z,21.37
2019-04-07T05:18:00.557Z,22.10
2019-04-07T05:20:32.034Z,21.33
2019-04-07T05:23:05.192Z,22.27
2019-04-07T05:25:36.187Z,21.47
2019-04-07T05:28:07.497Z,22.40
2019-04-07T05:30:39.186Z,21.77
2019-04-07T05:33:09.995Z,22.13
2019-04-07T05:35:40.656Z,23.00
2019-04-07T05:38:11.493Z,23.63
2019-04-07T05:40:42.194Z,24.13
2019-04-07T05:43:13.105Z,24.40
2019-04-07T05:45:45.513Z,25.17
2019-04-07T05:48:19.451Z,24.77
2019-04-07T05:50:48.893Z,22.13
2019-04-07T05:53:19.585Z,23.33
2019-04-07T05:55:53.772Z,18.70
2019-04-07T05:58:23.322Z,24.40
2019-04-07T06:00:54.746Z,21.53
2019-04-07T06:03:25.510Z,22.97
2019-04-07T06:05:56.279Z,22.47
2019-04-07T06:08:35.531Z,23.07
2019-04-07T06:11:02.121Z,23.83
2019-04-07T06:13:32.984Z,20.77
2019-04-07T06:16:04.182Z,26.33
2019-04-07T06:18:35.789Z,24.73
2019-04-07T06:21:08.007Z,25.77
2019-04-07T06:23:39.710Z,25.50
2019-04-07T06:26:11.877Z,23.50
2019-04-07T06:28:43.887Z,25.10
2019-04-07T06:31:16.109Z,22.03
2019-04-07T06:33:47.904Z,23.43
2019-04-07T06:36:20.233Z,23.40
2019-04-07T06:38:52.657Z,21.50
2019-04-07T06:41:27.353Z,23.23
2019-04-07T06:44:09.530Z,23.00
2019-04-07T06:46:30.656Z,22.23
2019-04-07T06:49:04.885Z,24.17
2019-04-07T06:51:46.178Z,23.43
2019-04-07T06:54:37.696Z,23.10
2019-04-07T06:57:26.647Z,23.83
2019-04-07T07:00:02.430Z,23.57
2019-04-07T07:02:51.067Z,22.67
2019-04-07T07:05:26.751Z,24.17
2019-04-07T07:08:21.045Z,23.03
2019-04-07T07:11:10.573Z,23.00
2019-04-07T07:13:45.706Z,24.67
2019-04-07T07:16:35.002Z,22.30
2019-04-07T07:19:08.321Z,24.50
2019-04-07T07:21:57.844Z,22.90
2019-04-07T07:24:29.876Z,24.27
2019-04-07T07:27:02.668Z,23.57
2019-04-07T07:29:33.874Z,24.23
2019-04-07T07:32:06.328Z,23.43
2019-04-07T07:34:39.896Z,23.53
2019-04-07T07:37:10.608Z,23.37
2019-04-07T07:39:43.366Z,23.53
2019-04-07T07:42:14.713Z,23.53
2019-04-07T07:44:46.007Z,24.53
2019-04-07T07:47:19.767Z,23.73
2019-04-07T07:49:49.749Z,22.33
2019-04-07T07:52:21.952Z,23.43
2019-04-07T07:54:53.624Z,23.53
2019-04-07T07:57:24.980Z,23.57
2019-04-07T07:59:56.418Z,24.63
2019-04-07T08:02:29.057Z,23.47
2019-04-07T08:05:00.597Z,21.73
2019-04-07T08:07:31.461Z,22.45
2019-04-07T08:10:03.064Z,23.80
2019-04-07T08:12:34.933Z,22.70
2019-04-07T08:15:08.223Z,21.85
2019-04-07T08:17:39.222Z,21.75
2019-04-07T08:20:11.354Z,23.22
2019-04-07T08:22:44.858Z,21.65
2019-04-07T08:25:20.381Z,23.38
2019-04-07T08:27:52.086Z,23.80
2019-04-07T08:30:23.803Z,22.10
2019-04-07T08:32:57.630Z,22.35
2019-04-07T08:35:30.887Z,21.30
2019-04-07T08:38:01.623Z,21.30
2019-04-07T08:40:32.809Z,21.85
2019-04-07T08:43:03.643Z,20.80
2019-04-07T08:45:35.035Z,20.02
2019-04-07T08:48:06.466Z,17.90
2019-04-07T08:50:38.171Z,22.73
2019-04-07T08:53:13.568Z,19.73
2019-04-07T08:55:44.477Z,20.82
2019-04-07T08:58:25.146Z,17.52
2019-04-07T09:00:53.603Z,21.55
2019-04-07T09:03:25.212Z,18.57
2019-04-07T09:05:58.483Z,16.48
2019-04-07T09:08:30.720Z,17.52
2019-04-07T09:11:06.065Z,15.95
2019-04-07T09:13:37.339Z,17.50
2019-04-07T09:16:14.480Z,16.67
2019-04-07T09:19:04.961Z,20.75
2019-04-07T09:21:48.254Z,15.68
2019-04-07T09:24:38.139Z,14.30
2019-04-07T09:27:16.998Z,15.68
2019-04-07T09:29:58.947Z,14.90
2019-04-07T09:32:44.870Z,15.48
2019-04-07T09:35:34.199Z,15.28
2019-04-07T09:38:26.184Z,17.15
2019-04-07T09:40:58.490Z,15.03
2019-04-07T09:43:48.519Z,16.12
2019-04-07T09:46:21.233Z,17.92
2019-04-07T09:48:55.238Z,18.57
2019-04-07T09:51:28.106Z,16.87
2019-04-07T09:54:20.206Z,16.65
2019-04-07T09:56:51.885Z,16.75
2019-04-07T09:59:40.793Z,16.97
2019-04-07T10:02:34.153Z,16.30
2019-04-07T10:05:11.314Z,16.48
2019-04-07T10:08:03.240Z,16.50
2019-04-07T10:10:52.663Z,17.20
2019-04-07T10:13:40.963Z,15.23
2019-04-07T10:16:20.038Z,17.48
2019-04-07T10:18:56.468Z,16.23
2019-04-07T10:21:30.011Z,16.17
2019-04-07T10:24:20.597Z,16.73
2019-04-07T10:26:58.766Z,16.77
2019-04-07T10:29:37.683Z,16.30
2019-04-07T10:32:15.996Z,17.12
2019-04-07T10:35:04.802Z,15.28
2019-04-07T10:37:55.076Z,17.60
2019-04-07T10:40:31.047Z,17.27
2019-04-07T10:43:19.979Z,17.67
2019-04-07T10:46:09.338Z,16.27
2019-04-07T10:48:42.298Z,16.82
2019-04-07T10:51:21.371Z,17.62
2019-04-07T10:54:08.728Z,16.77
2019-04-07T10:56:57.604Z,16.30
2019-04-07T10:59:34.186Z,16.62
2019-04-07T11:02:10.271Z,15.93
2019-04-07T11:04:44.005Z,15.85
2019-04-07T11:07:32.785Z,17.32
2019-04-07T11:10:15.864Z,15.68
2019-04-07T11:12:53.769Z,15.50
2019-04-07T11:15:27.079Z,15.70
2019-04-07T11:18:00.368Z,17.05
2019-04-07T11:20:48.877Z,16.85
2019-04-07T11:23:28.516Z,16.07
2019-04-07T11:26:00.968Z,16.52
2019-04-07T11:28:51.458Z,15.85
2019-04-07T11:31:25.488Z,16.67
2019-04-07T11:33:58.861Z,16.75
2019-04-07T11:36:34.341Z,16.35
2019-04-07T11:39:29.089Z,14.05
2019-04-07T11:42:10.871Z,15.65
2019-04-07T11:45:01.441Z,16.17
2019-04-07T11:47:34.668Z,16.12
2019-04-07T11:50:11.338Z,17.32
2019-04-07T11:52:47.262Z,16.85
2019-04-07T11:55:21.707Z,17.35
2019-04-07T11:58:11.616Z,15.88
2019-04-07T12:00:39.107Z,18.52
2019-04-07T12:03:28.867Z,16.40
2019-04-07T12:06:07.571Z,16.75
2019-04-07T12:08:55.714Z,16.82
2019-04-07T12:11:30.992Z,16.12
2019-04-07T12:14:20.339Z,16.48
2019-04-07T12:16:55.307Z,16.50
2019-04-07T12:19:28.890Z,16.95
2019-04-07T12:22:13.201Z,14.33
2019-04-07T12:24:59.245Z,16.42
2019-04-07T12:27:33.372Z,15.03
2019-04-07T12:30:08.959Z,16.27
2019-04-07T12:32:41.887Z,15.25
2019-04-07T12:35:19.517Z,14.83
2019-04-07T12:38:04.045Z,14.75
2019-04-07T12:40:44.372Z,15.58
2019-04-07T12:43:30.345Z,13.45
2019-04-07T12:46:19.440Z,15.08
2019-04-07T12:48:55.416Z,12.58
2019-04-07T12:51:31.839Z,14.03
2019-04-07T12:54:08.193Z,16.00
2019-04-07T12:56:42.354Z,15.88
2019-04-07T12:59:16.890Z,13.72
2019-04-07T13:01:51.033Z,13.10
2019-04-07T13:04:28.492Z,14.40
2019-04-07T13:07:03.816Z,15.28
2019-04-07T13:09:53.688Z,13.98
2019-04-07T13:12:38.826Z,16.57
2019-04-07T13:15:30.311Z,15.58
2019-04-07T13:18:08.315Z,14.53
2019-04-07T13:20:50.321Z,14.30
2019-04-07T13:23:22.277Z,14.18
2019-04-07T13:25:56.664Z,13.45
2019-04-07T13:28:32.663Z,15.15
2019-04-07T13:31:18.101Z,14.93
2019-04-07T13:33:51.195Z,15.95
2019-04-07T13:36:25.241Z,14.87
2019-04-07T13:38:57.875Z,14.73
2019-04-07T13:41:43.413Z,13.90
2019-04-07T13:44:14.998Z,13.48
2019-04-07T13:46:59.359Z,13.72
2019-04-07T13:49:33.264Z,14.00
2019-04-07T13:52:07.556Z,12.98
2019-04-07T13:54:49.365Z,12.13
2019-04-07T13:57:27.797Z,13.68
2019-04-07T14:00:20.138Z,13.13
2019-04-07T14:03:13.402Z,12.63
2019-04-07T14:05:46.542Z,12.33
2019-04-07T14:08:25.796Z,13.55
2019-04-07T14:11:02.691Z,11.33
2019-04-07T14:13:40.716Z,14.43
2019-04-07T14:16:19.609Z,12.60
2019-04-07T14:18:58.573Z,11.60
2019-04-07T14:21:46.256Z,11.85
2019-04-07T14:24:27.890Z,12.60
2019-04-07T14:27:09.847Z,12.73
2019-04-07T14:29:49.993Z,11.60
2019-04-07T14:32:23.157Z,10.82
2019-04-07T14:35:03.066Z,10.03
2019-04-07T14:37:37.197Z,11.00
2019-04-07T14:40:20.414Z,11.38
2019-04-07T14:43:09.622Z,11.45
2019-04-07T14:45:49.273Z,10.38
2019-04-07T14:48:25.362Z,9.95
2019-04-07T14:51:06.741Z,11.48
2019-04-07T14:53:39.207Z,12.05
2019-04-07T14:56:14.389Z,12.65
2019-04-07T14:58:53.780Z,10.38
2019-04-07T15:01:25.713Z,11.65
2019-04-07T15:03:56.720Z,11.40
2019-04-07T15:06:31.149Z,11.57
2019-04-07T15:09:17.628Z,12.13
2019-04-07T15:11:51.192Z,11.28
2019-04-07T15:14:23.285Z,10.82
2019-04-07T15:16:54.684Z,10.75
2019-04-07T15:19:25.444Z,10.95
2019-04-07T15:21:58.226Z,11.45
2019-04-07T15:24:35.320Z,11.68
2019-04-07T15:27:05.910Z,11.30
2019-04-07T15:29:41.372Z,13.10
2019-04-07T15:32:10.547Z,11.85
2019-04-07T15:34:42.538Z,12.05
2019-04-07T15:37:15.410Z,10.95
2019-04-07T15:39:47.971Z,11.90
2019-04-07T15:42:33.094Z,12.35
2019-04-07T15:44:54.007Z,10.63
2019-04-07T15:47:26.571Z,9.95
2019-04-07T15:49:58.140Z,10.50
2019-04-07T15:52:31.640Z,11.08
2019-04-07T15:55:06.279Z,12.33
2019-04-07T15:57:37.245Z,12.15
2019-04-07T16:00:08.667Z,11.65
2019-04-07T16:02:42.216Z,11.10
2019-04-07T16:05:14.784Z,11.93
2019-04-07T16:07:46.718Z,12.43
2019-04-07T16:10:21.289Z,11.85
2019-04-07T16:12:52.776Z,12.47
2019-04-07T16:15:23.659Z,11.43
2019-04-07T16:17:56.793Z,10.80
2019-04-07T16:20:32.463Z,17.90
2019-04-07T16:23:00.880Z,13.97
2019-04-07T16:25:32.378Z,13.67
2019-04-07T16:28:03.762Z,12.13
2019-04-07T16:30:34.886Z,13.97
2019-04-07T16:33:06.195Z,14.17
2019-04-07T16:35:38.344Z,14.20
2019-04-07T16:38:10.947Z,14.63
2019-04-07T16:40:42.417Z,14.80
2019-04-07T16:43:17.348Z,13.13
2019-04-07T16:45:47.163Z,13.80
2019-04-07T16:48:19.688Z,16.40
2019-04-07T16:50:54.747Z,13.33
2019-04-07T16:53:23.701Z,11.77
2019-04-07T16:55:55.931Z,12.57
2019-04-07T16:58:27.611Z,14.60
2019-04-07T17:00:59.008Z,14.20
2019-04-07T17:03:31.036Z,16.73
2019-04-07T17:06:05.299Z,15.73
2019-04-07T17:08:39.127Z,16.77
2019-04-07T17:11:10.891Z,20.97
2019-04-07T17:13:42.972Z,22.73
2019-04-07T17:16:14.660Z,24.43
2019-04-07T17:18:47.900Z,22.10
2019-04-07T17:21:22.428Z,21.10
2019-04-07T17:23:55.750Z,22.27
2019-04-07T17:26:27.690Z,34.77
2019-04-07T17:28:59.723Z,21.63
2019-04-07T17:31:33.609Z,22.97
2019-04-07T17:34:09.823Z,24.13
2019-04-07T17:36:40.939Z,30.80
2019-04-07T17:39:26.118Z,37.73
2019-04-07T17:41:59.446Z,34.10
2019-04-07T17:44:33.968Z,31.20
2019-04-07T17:47:13.660Z,28.87
2019-04-07T17:49:50.417Z,37.23
2019-04-07T17:52:29.102Z,26.20
2019-04-07T17:55:14.046Z,23.03
2019-04-07T17:57:49.537Z,26.17
2019-04-07T18:00:40.928Z,27.77
2019-04-07T18:03:17.785Z,24.43
2019-04-07T18:05:59.286Z,20.47
2019-04-07T18:08:41.811Z,19.93
2019-04-07T18:11:18.833Z,21.37
2019-04-07T18:13:57.591Z,19.10
2019-04-07T18:16:29.177Z,14.33
2019-04-07T18:19:05.361Z,17.83
2019-04-07T18:21:44.834Z,19.37
2019-04-07T18:24:22.735Z,16.73
2019-04-07T18:26:55.631Z,22.47
2019-04-07T18:29:30.982Z,26.97
2019-04-07T18:32:07.546Z,33.00
2019-04-07T18:34:58.439Z,42.00
2019-04-07T18:37:48.481Z,48.73
2019-04-07T18:40:29.521Z,40.37
2019-04-07T18:43:20.221Z,46.57
2019-04-07T18:46:11.909Z,39.93
2019-04-07T18:48:49.074Z,30.87
2019-04-07T18:51:34.192Z,36.90
2019-04-07T18:54:26.912Z,28.17
2019-04-07T18:57:14.070Z,29.37
2019-04-07T19:00:04.216Z,25.37
2019-04-07T19:02:46.409Z,25.63
2019-04-07T19:05:22.242Z,30.03
2019-04-07T19:08:11.738Z,27.20
2019-04-07T19:11:10.302Z,23.70
2019-04-07T19:13:44.962Z,22.77
2019-04-07T19:16:22.045Z,24.83
2019-04-07T19:19:10.651Z,30.33
2019-04-07T19:21:47.123Z,28.03
2019-04-07T19:24:22.737Z,21.67
2019-04-07T19:27:10.493Z,25.37
2019-04-07T19:29:39.150Z,39.00
2019-04-07T19:32:14.685Z,42.83
2019-04-07T19:34:49.256Z,36.07
2019-04-07T19:37:42.350Z,36.33
2019-04-07T19:40:16.708Z,37.00
2019-04-07T19:43:10.715Z,27.80
2019-04-07T19:45:47.265Z,28.13
2019-04-07T19:48:21.024Z,25.07
2019-04-07T19:51:03.705Z,24.43
2019-04-07T19:53:43.237Z,21.83
2019-04-07T19:56:31.452Z,23.00
2019-04-07T19:59:13.962Z,26.37
2019-04-07T20:01:49.129Z,22.10
2019-04-07T20:04:44.153Z,22.57
2019-04-07T20:07:31.641Z,21.80
2019-04-07T20:10:19.957Z,24.60
2019-04-07T20:12:59.048Z,24.27
2019-04-07T20:15:49.606Z,22.47
2019-04-07T20:18:28.291Z,23.10
2019-04-07T20:21:21.273Z,22.60
2019-04-07T20:24:07.029Z,25.47
2019-04-07T20:26:56.749Z,22.90
2019-04-07T20:29:31.707Z,25.07
2019-04-07T20:32:11.082Z,23.70
2019-04-07T20:34:45.047Z,25.70
2019-04-07T20:37:35.043Z,25.30
2019-04-07T20:40:19.332Z,27.43
2019-04-07T20:42:58.283Z,26.93
2019-04-07T20:45:50.048Z,24.53
2019-04-07T20:48:25.754Z,23.73
2019-04-07T20:51:17.690Z,24.73
2019-04-07T20:53:51.520Z,26.10
2019-04-07T20:56:36.343Z,27.50
2019-04-07T20:59:26.936Z,29.30
2019-04-07T21:02:08.642Z,28.47
2019-04-07T21:04:52.116Z,27.90
2019-04-07T21:07:28.336Z,26.40
2019-04-07T21:10:06.544Z,27.10
2019-04-07T21:12:52.693Z,23.40
2019-04-07T21:15:31.508Z,21.13
2019-04-07T21:18:18.745Z,21.97
2019-04-07T21:21:04.525Z,25.33
2019-04-07T21:23:52.966Z,27.27
2019-04-07T21:26:27.788Z,27.73
2019-04-07T21:29:08.159Z,27.30
2019-04-07T21:31:39.815Z,28.47
2019-04-07T21:34:12.378Z,29.03
2019-04-07T21:36:57.231Z,26.40
2019-04-07T21:39:31.823Z,25.70
2019-04-07T21:42:19.937Z,25.10
2019-04-07T21:45:07.746Z,28.10
2019-04-07T21:47:41.812Z,23.53
2019-04-07T21:50:24.586Z,25.30
2019-04-07T21:53:03.141Z,22.93
2019-04-07T21:55:52.086Z,24.60
2019-04-07T21:58:40.708Z,30.27
2019-04-07T22:01:16.662Z,27.27
2019-04-07T22:03:49.750Z,26.47
2019-04-07T22:06:37.411Z,23.40
2019-04-07T22:09:20.561Z,25.33
2019-04-07T22:11:53.674Z,22.27
2019-04-07T22:14:24.523Z,23.77
2019-04-07T22:16:55.230Z,25.00
2019-04-07T22:19:26.122Z,24.77
2019-04-07T22:21:57.013Z,26.00
2019-04-07T22:24:32.166Z,27.00
2019-04-07T22:27:04.289Z,27.47
2019-04-07T22:29:34.937Z,28.53
2019-04-07T22:32:07.431Z,29.33
2019-04-07T22:34:38.388Z,28.97
2019-04-07T22:37:10.106Z,28.40
2019-04-07T22:39:41.775Z,24.87
2019-04-07T22:42:15.256Z,31.03
2019-04-07T22:44:46.220Z,28.77
2019-04-07T22:47:19.702Z,20.90
2019-04-07T22:49:50.964Z,30.07
2019-04-07T22:52:22.571Z,31.13
2019-04-07T22:54:54.567Z,34.40
2019-04-07T22:57:26.007Z,37.10
2019-04-07T22:59:56.970Z,35.83
2019-04-07T23:02:27.967Z,31.27
2019-04-07T23:04:58.807Z,29.60
2019-04-07T23:07:29.994Z,27.57
2019-04-07T23:10:01.233Z,33.93
2019-04-07T23:12:34.083Z,37.20
2019-04-07T23:15:06.954Z,33.23
2019-04-07T23:17:37.744Z,30.73
2019-04-07T23:20:09.989Z,30.87
2019-04-07T23:22:42.343Z,30.57
2019-04-07T23:25:13.378Z,28.93
2019-04-07T23:27:44.302Z,28.43
2019-04-07T23:30:17.328Z,30.57
2019-04-07T23:32:48.470Z,27.27
2019-04-07T23:35:20.114Z,27.37
2019-04-07T23:37:52.146Z,30.43
2019-04-07T23:40:23.744Z,30.90
2019-04-07T23:42:55.357Z,30.90
2019-04-07T23:45:26.089Z,30.03
2019-04-07T23:47:56.959Z,43.43
2019-04-07T23:50:27.915Z,36.40
2019-04-07T23:53:01.591Z,34.47
2019-04-07T23:55:32.279Z,37.07
2019-04-07T23:58:03.051Z,34.37
